createdAt,value
2022-09-06T00:01:19.177Z,24.00
2022-09-06T00:03:49.023Z,24.00
2022-09-06T00:06:20.043Z,24.00
2022-09-06T00:08:50.625Z,24.10
2022-09-06T00:11:22.077Z,24.00
2022-09-06T00:13:51.903Z,23.80
2022-09-06T00:16:26.308Z,23.40
2022-09-06T00:18:58.406Z,23.50
2022-09-06T00:21:29.509Z,23.70
2022-09-06T00:23:59.269Z,23.60
2022-09-06T00:26:30.257Z,23.60
2022-09-06T00:28:59.922Z,23.60
2022-09-06T00:31:29.469Z,23.70
2022-09-06T00:33:59.068Z,23.70
2022-09-06T00:36:29.121Z,23.70
2022-09-06T00:38:59.042Z,23.60
2022-09-06T00:41:30.081Z,23.50
2022-09-06T00:43:59.614Z,23.30
2022-09-06T00:46:31.406Z,23.60
2022-09-06T00:49:04.294Z,23.40
2022-09-06T00:51:36.210Z,23.30
2022-09-06T00:54:07.053Z,23.30
2022-09-06T00:56:42.668Z,23.20
2022-09-06T00:59:12.378Z,23.10
2022-09-06T01:01:41.947Z,23.30
2022-09-06T01:04:11.828Z,23.50
2022-09-06T01:06:50.059Z,23.50
2022-09-06T01:09:34.030Z,23.30
2022-09-06T01:12:18.945Z,23.20
2022-09-06T01:15:03.574Z,23.00
2022-09-06T01:17:41.728Z,23.00
2022-09-06T01:20:39.487Z,23.00
2022-09-06T01:23:57.065Z,22.80
2022-09-06T01:27:11.015Z,22.80
2022-09-06T01:29:46.801Z,22.80
2022-09-06T01:32:24.842Z,22.70
2022-09-06T01:34:59.680Z,22.70
2022-09-06T01:37:29.883Z,22.70
2022-09-06T01:39:59.418Z,22.70
2022-09-06T01:42:33.229Z,22.70
2022-09-06T01:45:06.865Z,22.70
2022-09-06T01:47:53.032Z,22.60
2022-09-06T01:50:36.274Z,22.60
2022-09-06T01:53:17.333Z,22.60
2022-09-06T01:55:54.883Z,22.50
2022-09-06T01:58:46.823Z,22.70
2022-09-06T02:01:23.832Z,22.40
2022-09-06T02:04:00.754Z,22.60
2022-09-06T02:06:34.269Z,22.60
2022-09-06T02:09:08.677Z,22.70
2022-09-06T02:11:43.683Z,22.70
2022-09-06T02:14:17.213Z,22.60
2022-09-06T02:16:51.290Z,22.50
2022-09-06T02:19:29.599Z,22.40
2022-09-06T02:22:01.281Z,22.40
2022-09-06T02:24:33.220Z,22.40
2022-09-06T02:27:02.829Z,22.40
2022-09-06T02:29:32.398Z,22.50
2022-09-06T02:32:12.322Z,22.60
2022-09-06T02:34:43.566Z,22.50
2022-09-06T02:37:14.456Z,22.60
2022-09-06T02:39:44.022Z,22.60
2022-09-06T02:42:15.595Z,22.50
2022-09-06T02:44:45.142Z,22.50
2022-09-06T02:47:16.133Z,22.50
2022-09-06T02:49:45.647Z,22.40
2022-09-06T02:52:15.888Z,22.50
2022-09-06T02:54:45.390Z,22.40
2022-09-06T02:57:14.935Z,22.50
2022-09-06T02:59:44.507Z,22.50
2022-09-06T03:02:16.668Z,22.60
2022-09-06T03:04:46.266Z,22.60
2022-09-06T03:07:15.648Z,22.50
2022-09-06T03:09:45.160Z,22.60
2022-09-06T03:12:14.625Z,22.70
2022-09-06T03:14:44.145Z,22.60
2022-09-06T03:17:13.555Z,22.40
2022-09-06T03:19:44.642Z,22.40
2022-09-06T03:22:14.168Z,22.30
2022-09-06T03:24:43.600Z,22.40
2022-09-06T03:27:13.154Z,22.20
2022-09-06T03:29:42.567Z,22.30
2022-09-06T03:32:12.103Z,22.30
2022-09-06T03:34:41.558Z,22.40
2022-09-06T03:37:12.926Z,22.50
2022-09-06T03:39:42.515Z,22.40
2022-09-06T03:42:13.465Z,22.40
2022-09-06T03:44:43.018Z,22.50
2022-09-06T03:47:12.455Z,22.50
2022-09-06T03:49:41.904Z,22.50
2022-09-06T03:52:15.145Z,22.20
2022-09-06T03:54:44.678Z,22.20
2022-09-06T03:57:14.176Z,22.30
2022-09-06T03:59:43.725Z,22.30
2022-09-06T04:02:13.121Z,22.20
2022-09-06T04:04:42.735Z,22.30
2022-09-06T04:07:13.631Z,22.40
2022-09-06T04:09:43.055Z,22.30
2022-09-06T04:12:12.485Z,22.30
2022-09-06T04:14:41.985Z,22.50
2022-09-06T04:17:11.509Z,22.40
2022-09-06T04:19:41.087Z,22.50
2022-09-06T04:22:10.556Z,22.40
2022-09-06T04:24:41.675Z,22.30
2022-09-06T04:27:11.216Z,22.50
2022-09-06T04:29:40.616Z,22.50
2022-09-06T04:32:10.254Z,22.50
2022-09-06T04:34:39.708Z,22.50
2022-09-06T04:37:09.225Z,22.50
2022-09-06T04:39:38.742Z,22.40
2022-09-06T04:42:10.055Z,22.50
2022-09-06T04:44:39.635Z,22.30
2022-09-06T04:47:15.129Z,22.30
2022-09-06T04:49:45.417Z,22.10
2022-09-06T04:52:15.147Z,21.80
2022-09-06T04:54:44.588Z,21.80
2022-09-06T04:57:15.636Z,22.20
2022-09-06T04:59:45.126Z,22.50
2022-09-06T05:02:14.623Z,22.40
2022-09-06T05:04:44.203Z,22.40
2022-09-06T05:07:13.645Z,22.20
2022-09-06T05:09:43.338Z,22.00
2022-09-06T05:12:12.805Z,22.00
2022-09-06T05:14:43.796Z,22.00
2022-09-06T05:17:14.990Z,22.10
2022-09-06T05:19:44.569Z,22.20
2022-09-06T05:22:14.021Z,22.30
2022-09-06T05:24:43.719Z,22.30
2022-09-06T05:27:13.143Z,22.30
2022-09-06T05:29:44.184Z,22.30
2022-09-06T05:32:13.874Z,22.20
2022-09-06T05:34:43.272Z,22.00
2022-09-06T05:37:12.892Z,21.90
2022-09-06T05:39:42.326Z,22.00
2022-09-06T05:42:14.875Z,21.90
2022-09-06T05:44:48.299Z,22.10
2022-09-06T05:47:17.807Z,22.30
2022-09-06T05:49:47.944Z,22.40
2022-09-06T05:52:20.170Z,22.50
2022-09-06T05:54:49.747Z,22.50
2022-09-06T05:57:19.156Z,22.60
2022-09-06T05:59:50.229Z,22.80
2022-09-06T06:02:19.775Z,22.90
2022-09-06T06:04:49.239Z,23.00
2022-09-06T06:07:18.813Z,23.00
2022-09-06T06:09:48.246Z,23.00
2022-09-06T06:12:17.773Z,23.00
2022-09-06T06:14:47.212Z,23.00
2022-09-06T06:17:18.208Z,22.90
2022-09-06T06:19:47.754Z,22.90
2022-09-06T06:22:17.156Z,23.00
2022-09-06T06:24:46.670Z,23.10
2022-09-06T06:27:16.101Z,23.20
2022-09-06T06:29:45.585Z,23.20
2022-09-06T06:32:15.074Z,23.10
2022-09-06T06:34:46.085Z,23.30
2022-09-06T06:37:15.617Z,23.60
2022-09-06T06:39:45.456Z,23.70
2022-09-06T06:42:16.448Z,23.80
2022-09-06T06:44:54.431Z,23.80
2022-09-06T06:47:24.037Z,23.70
2022-09-06T06:49:54.953Z,23.90
2022-09-06T06:52:24.826Z,24.00
2022-09-06T06:54:54.289Z,24.10
2022-09-06T06:57:23.768Z,24.20
2022-09-06T06:59:53.205Z,24.10
2022-09-06T07:02:22.742Z,24.10
2022-09-06T07:04:52.160Z,24.20
2022-09-06T07:07:30.262Z,24.30
2022-09-06T07:12:49.741Z,24.50
2022-09-06T07:15:19.351Z,24.60
2022-09-06T07:17:48.843Z,24.70
2022-09-06T07:20:18.515Z,24.60
2022-09-06T07:22:49.708Z,24.60
2022-09-06T07:25:21.654Z,24.70
2022-09-06T07:27:57.464Z,24.80
2022-09-06T07:30:26.992Z,24.90
2022-09-06T07:32:56.416Z,25.20
2022-09-06T07:35:26.910Z,25.10
2022-09-06T07:38:00.286Z,25.10
2022-09-06T07:40:31.419Z,25.10
2022-09-06T07:43:01.363Z,25.30
2022-09-06T07:45:30.788Z,25.30
2022-09-06T07:48:00.929Z,25.40
2022-09-06T07:50:48.699Z,25.40
2022-09-06T07:53:29.793Z,25.40
2022-09-06T07:56:01.927Z,25.40
2022-09-06T07:58:32.270Z,25.50
2022-09-06T08:01:35.213Z,25.60
2022-09-06T08:04:06.409Z,25.50
2022-09-06T08:09:29.113Z,25.50
2022-09-06T08:11:58.601Z,25.80
2022-09-06T08:14:28.038Z,26.00
2022-09-06T08:16:57.612Z,25.80
2022-09-06T08:19:27.355Z,25.90
2022-09-06T08:21:57.169Z,26.10
2022-09-06T08:24:28.334Z,25.80
2022-09-06T08:26:57.905Z,25.80
2022-09-06T08:29:27.753Z,25.80
2022-09-06T08:31:57.286Z,25.70
2022-09-06T08:34:27.123Z,25.60
2022-09-06T08:36:56.523Z,25.50
2022-09-06T08:39:26.349Z,25.50
2022-09-06T08:42:01.531Z,25.60
2022-09-06T08:47:25.386Z,25.70
2022-09-06T08:49:58.484Z,26.00
2022-09-06T08:53:00.158Z,26.20
2022-09-06T08:55:40.717Z,26.20
2022-09-06T08:58:36.523Z,26.40
2022-09-06T09:01:08.956Z,26.70
2022-09-06T09:03:40.218Z,26.80
2022-09-06T09:06:10.521Z,26.90
2022-09-06T09:08:46.740Z,27.00
2022-09-06T09:11:20.553Z,27.20
2022-09-06T09:13:59.568Z,27.40
2022-09-06T09:16:29.209Z,26.90
2022-09-06T09:19:02.720Z,26.60
2022-09-06T09:21:37.748Z,26.70
2022-09-06T09:24:10.538Z,27.20
2022-09-06T09:26:49.624Z,27.40
2022-09-06T09:29:25.346Z,27.50
2022-09-06T09:31:57.888Z,27.80
2022-09-06T09:34:33.793Z,28.00
2022-09-06T09:40:03.684Z,28.10
2022-09-06T09:42:35.696Z,27.80
2022-09-06T09:45:23.027Z,28.00
2022-09-06T09:47:52.591Z,28.20
2022-09-06T09:50:28.639Z,28.10
2022-09-06T09:53:08.947Z,28.10
2022-09-06T09:55:39.305Z,28.10
2022-09-06T09:58:18.064Z,28.50
2022-09-06T10:00:49.210Z,28.70
2022-09-06T10:03:21.534Z,28.80
2022-09-06T10:06:02.387Z,28.70
2022-09-06T10:08:36.553Z,28.80
2022-09-06T10:11:06.651Z,28.80
2022-09-06T10:13:36.090Z,28.90
2022-09-06T10:16:07.991Z,29.00
2022-09-06T10:18:39.578Z,28.50
2022-09-06T10:21:11.775Z,28.20
2022-09-06T10:26:57.232Z,27.90
2022-09-06T10:29:35.207Z,28.20
2022-09-06T10:32:13.845Z,28.30
2022-09-06T10:35:22.269Z,28.40
2022-09-06T10:38:05.547Z,28.30
2022-09-06T10:40:41.406Z,28.30
2022-09-06T10:43:19.439Z,28.50
2022-09-06T10:45:58.697Z,28.70
2022-09-06T10:48:34.196Z,28.80
2022-09-06T10:51:09.947Z,28.90
2022-09-06T10:53:48.106Z,28.80
2022-09-06T10:56:24.207Z,29.00
2022-09-06T11:02:05.130Z,28.90
2022-09-06T11:07:31.353Z,28.80
2022-09-06T11:10:05.013Z,29.00
2022-09-06T11:12:39.615Z,29.70
2022-09-06T11:15:13.988Z,28.90
2022-09-06T11:17:48.463Z,29.60
2022-09-06T11:20:31.390Z,30.50
2022-09-06T11:23:29.297Z,29.90
2022-09-06T11:26:32.413Z,28.90
2022-09-06T11:29:03.965Z,28.60
2022-09-06T11:34:30.011Z,28.90
2022-09-06T11:37:02.850Z,29.00
2022-09-06T11:42:43.921Z,29.80
2022-09-06T11:45:21.901Z,30.10
2022-09-06T11:47:56.355Z,30.60
2022-09-06T11:50:29.111Z,30.30
2022-09-06T11:53:13.301Z,29.80
2022-09-06T11:55:45.483Z,29.70
2022-09-06T11:58:25.582Z,30.50
2022-09-06T12:01:34.167Z,30.20
2022-09-06T12:04:07.596Z,30.70
2022-09-06T12:06:41.157Z,30.40
2022-09-06T12:09:33.274Z,30.30
2022-09-06T12:12:04.408Z,30.40
2022-09-06T12:14:39.955Z,30.30
2022-09-06T12:17:27.468Z,30.80
2022-09-06T12:20:07.195Z,30.60
2022-09-06T12:23:00.877Z,30.60
2022-09-06T12:25:56.533Z,31.20
2022-09-06T12:28:47.450Z,30.80
2022-09-06T12:31:38.725Z,31.00
2022-09-06T12:34:13.335Z,31.10
2022-09-06T12:36:56.775Z,31.30
2022-09-06T12:39:26.943Z,31.90
2022-09-06T12:42:02.900Z,33.10
2022-09-06T12:44:38.629Z,32.60
2022-09-06T12:47:16.457Z,33.80
2022-09-06T12:49:45.981Z,33.40
2022-09-06T12:52:20.898Z,32.80
2022-09-06T12:54:52.130Z,33.60
2022-09-06T12:57:25.187Z,33.50
2022-09-06T12:59:56.053Z,32.70
2022-09-06T13:02:33.040Z,31.80
2022-09-06T13:05:07.033Z,32.50
2022-09-06T13:07:40.873Z,32.20
2022-09-06T13:10:11.863Z,31.90
2022-09-06T13:12:46.862Z,31.80
2022-09-06T13:15:20.457Z,31.70
2022-09-06T13:17:50.930Z,32.40
2022-09-06T13:20:26.856Z,32.80
2022-09-06T13:23:08.243Z,32.00
2022-09-06T13:25:48.332Z,32.80
2022-09-06T13:28:29.568Z,33.50
2022-09-06T13:31:08.416Z,33.30
2022-09-06T13:33:39.081Z,32.50
2022-09-06T13:36:19.915Z,32.40
2022-09-06T13:38:51.141Z,32.80
2022-09-06T13:41:47.707Z,33.50
2022-09-06T13:44:30.255Z,33.20
2022-09-06T13:46:59.834Z,32.10
2022-09-06T13:49:29.491Z,30.70
2022-09-06T13:52:02.593Z,31.90
2022-09-06T13:54:33.233Z,33.00
2022-09-06T13:57:03.349Z,33.50
2022-09-06T13:59:34.252Z,33.70
2022-09-06T14:02:08.025Z,34.20
2022-09-06T14:04:38.367Z,33.20
2022-09-06T14:07:08.024Z,32.70
2022-09-06T14:09:37.903Z,33.40
2022-09-06T14:12:08.184Z,33.30
2022-09-06T14:14:39.462Z,34.50
2022-09-06T14:17:08.950Z,35.00
2022-09-06T14:19:39.010Z,35.00
2022-09-06T14:22:08.745Z,34.20
2022-09-06T14:24:38.172Z,33.00
2022-09-06T14:27:08.964Z,32.90
2022-09-06T14:29:40.395Z,32.60
2022-09-06T14:32:09.968Z,33.50
2022-09-06T14:34:41.717Z,32.20
2022-09-06T14:37:13.536Z,31.20
2022-09-06T14:39:43.459Z,32.00
2022-09-06T14:42:13.360Z,31.60
2022-09-06T14:44:44.307Z,31.30
2022-09-06T14:47:14.344Z,31.10
2022-09-06T14:49:43.871Z,31.30
2022-09-06T14:52:13.374Z,31.60
2022-09-06T14:54:42.809Z,31.60
2022-09-06T14:57:12.279Z,31.70
2022-09-06T14:59:43.245Z,32.80
2022-09-06T15:02:12.768Z,31.90
2022-09-06T15:04:42.465Z,31.30
2022-09-06T15:07:12.013Z,30.90
2022-09-06T15:09:41.686Z,30.80
2022-09-06T15:12:11.204Z,31.30
2022-09-06T15:14:41.509Z,31.90
2022-09-06T15:17:12.545Z,32.10
2022-09-06T15:19:42.566Z,32.40
2022-09-06T15:22:11.967Z,32.70
2022-09-06T15:24:41.617Z,32.60
2022-09-06T15:27:11.094Z,31.10
2022-09-06T15:29:40.537Z,30.60
2022-09-06T15:32:10.028Z,30.30
2022-09-06T15:34:41.113Z,30.30
2022-09-06T15:37:10.767Z,31.00
2022-09-06T15:39:40.241Z,32.20
2022-09-06T15:42:10.507Z,32.50
2022-09-06T15:44:39.980Z,32.40
2022-09-06T15:47:09.480Z,32.80
2022-09-06T15:49:41.430Z,32.10
2022-09-06T15:52:11.153Z,32.20
2022-09-06T15:54:57.563Z,31.90
2022-09-06T15:57:27.102Z,32.20
2022-09-06T15:59:56.992Z,32.80
2022-09-06T16:02:26.537Z,32.50
2022-09-06T16:04:57.613Z,32.20
2022-09-06T16:07:27.153Z,32.40
2022-09-06T16:09:56.511Z,32.20
2022-09-06T16:12:25.982Z,32.10
2022-09-06T16:14:55.419Z,30.60
2022-09-06T16:17:27.817Z,30.50
2022-09-06T16:19:59.506Z,31.10
2022-09-06T16:22:29.118Z,31.60
2022-09-06T16:24:58.698Z,31.30
2022-09-06T16:27:28.328Z,31.40
2022-09-06T16:29:57.726Z,31.40
2022-09-06T16:32:27.284Z,31.40
2022-09-06T16:34:58.454Z,31.20
2022-09-06T16:37:27.968Z,30.90
2022-09-06T16:39:58.176Z,30.10
2022-09-06T16:42:27.774Z,29.70
2022-09-06T16:44:57.160Z,29.40
2022-09-06T16:47:26.659Z,29.20
2022-09-06T16:49:56.160Z,29.10
2022-09-06T16:52:27.275Z,29.00
2022-09-06T16:54:56.844Z,28.80
2022-09-06T16:57:26.338Z,28.80
2022-09-06T16:59:55.939Z,28.70
2022-09-06T17:02:25.484Z,28.60
2022-09-06T17:04:55.499Z,28.60
2022-09-06T17:07:26.520Z,28.50
2022-09-06T17:09:56.002Z,28.50
2022-09-06T17:12:25.508Z,28.40
2022-09-06T17:14:55.071Z,28.30
2022-09-06T17:17:23.419Z,28.30
2022-09-06T17:19:52.933Z,28.20
2022-09-06T17:22:22.509Z,28.20
2022-09-06T17:24:54.130Z,28.20
2022-09-06T17:27:24.196Z,28.10
2022-09-06T17:29:53.679Z,28.20
2022-09-06T17:32:23.226Z,28.10
2022-09-06T17:34:52.821Z,28.00
2022-09-06T17:37:23.457Z,27.90
2022-09-06T17:39:54.553Z,27.80
2022-09-06T17:42:25.074Z,27.70
2022-09-06T17:44:54.718Z,27.60
2022-09-06T17:47:24.122Z,27.50
2022-09-06T17:49:53.678Z,27.40
2022-09-06T17:52:23.263Z,27.40
2022-09-06T17:54:54.321Z,27.30
2022-09-06T17:57:23.881Z,27.40
2022-09-06T17:59:53.267Z,27.20
2022-09-06T18:02:22.811Z,27.20
2022-09-06T18:04:52.403Z,27.30
2022-09-06T18:07:21.999Z,27.30
2022-09-06T18:09:53.095Z,27.30
2022-09-06T18:12:22.909Z,27.30
2022-09-06T18:14:52.328Z,27.20
2022-09-06T18:17:21.899Z,27.20
2022-09-06T18:19:51.412Z,27.40
2022-09-06T18:22:20.924Z,27.40
2022-09-06T18:24:51.549Z,27.20
2022-09-06T18:27:24.095Z,27.10
2022-09-06T18:29:53.752Z,27.10
2022-09-06T18:32:23.499Z,27.00
2022-09-06T18:34:53.079Z,26.90
2022-09-06T18:37:22.619Z,27.00
2022-09-06T18:39:52.215Z,27.00
2022-09-06T18:42:23.321Z,27.00
2022-09-06T18:44:52.831Z,27.00
2022-09-06T18:47:22.803Z,27.00
2022-09-06T18:49:52.532Z,27.10
2022-09-06T18:52:21.992Z,27.00
2022-09-06T18:54:51.501Z,27.20
2022-09-06T18:57:21.012Z,27.10
2022-09-06T18:59:52.251Z,27.00
2022-09-06T19:02:23.879Z,27.00
2022-09-06T19:04:54.691Z,27.10
2022-09-06T19:07:24.301Z,27.00
2022-09-06T19:09:53.743Z,27.00
2022-09-06T19:12:23.487Z,26.80
2022-09-06T19:14:54.499Z,26.80
2022-09-06T19:17:24.260Z,26.90
2022-09-06T19:19:53.718Z,26.80
2022-09-06T19:22:23.609Z,26.80
2022-09-06T19:24:53.253Z,26.60
2022-09-06T19:27:22.945Z,26.60
2022-09-06T19:29:53.904Z,26.50
2022-09-06T19:32:23.454Z,26.80
2022-09-06T19:34:52.907Z,26.90
2022-09-06T19:37:24.234Z,26.70
2022-09-06T19:39:54.382Z,26.60
2022-09-06T19:42:24.053Z,26.50
2022-09-06T19:44:55.048Z,26.50
2022-09-06T19:47:24.597Z,26.40
2022-09-06T19:49:54.291Z,26.40
2022-09-06T19:52:23.891Z,26.40
2022-09-06T19:54:54.497Z,26.50
2022-09-06T19:57:24.138Z,26.60
2022-09-06T19:59:55.138Z,26.70
2022-09-06T20:02:24.802Z,26.50
2022-09-06T20:04:54.617Z,26.40
2022-09-06T20:07:24.198Z,26.50
2022-09-06T20:09:53.778Z,26.40
2022-09-06T20:12:23.709Z,26.10
2022-09-06T20:14:54.866Z,26.20
2022-09-06T20:17:39.537Z,26.00
2022-09-06T20:20:09.842Z,26.00
2022-09-06T20:22:39.338Z,26.00
2022-09-06T20:25:09.571Z,26.00
2022-09-06T20:27:41.378Z,26.10
2022-09-06T20:30:15.792Z,26.20
2022-09-06T20:32:45.369Z,26.10
2022-09-06T20:35:14.896Z,25.90
2022-09-06T20:37:45.032Z,25.90
2022-09-06T20:40:14.646Z,26.00
2022-09-06T20:42:46.333Z,25.90
2022-09-06T20:45:19.690Z,25.80
2022-09-06T20:47:49.275Z,25.70
2022-09-06T20:50:19.977Z,25.80
2022-09-06T20:52:49.972Z,25.70
2022-09-06T20:55:19.502Z,25.70
2022-09-06T20:57:49.478Z,25.60
2022-09-06T21:00:20.822Z,25.50
2022-09-06T21:02:50.554Z,25.50
2022-09-06T21:05:20.001Z,25.60
2022-09-06T21:07:51.999Z,25.70
2022-09-06T21:10:21.473Z,25.60
2022-09-06T21:12:51.819Z,25.60
2022-09-06T21:15:22.957Z,25.70
2022-09-06T21:17:52.515Z,25.80
2022-09-06T21:20:22.047Z,25.80
2022-09-06T21:22:51.569Z,25.60
2022-09-06T21:25:21.072Z,25.80
2022-09-06T21:27:55.124Z,25.70
2022-09-06T21:30:26.849Z,25.60
2022-09-06T21:32:57.525Z,25.60
2022-09-06T21:35:27.160Z,25.40
2022-09-06T21:37:56.599Z,25.30
2022-09-06T21:40:26.142Z,25.20
2022-09-06T21:42:55.755Z,25.00
2022-09-06T21:45:26.769Z,25.00
2022-09-06T21:47:56.613Z,25.00
2022-09-06T21:50:26.139Z,25.00
2022-09-06T21:52:55.638Z,25.00
2022-09-06T21:55:25.295Z,25.10
2022-09-06T21:57:54.810Z,25.10
2022-09-06T22:00:24.243Z,24.90
2022-09-06T22:02:55.452Z,24.80
2022-09-06T22:05:24.997Z,24.60
2022-09-06T22:07:54.392Z,24.60
2022-09-06T22:10:25.740Z,24.70
2022-09-06T22:12:55.478Z,24.60
2022-09-06T22:15:24.974Z,24.60
2022-09-06T22:17:56.073Z,24.40
2022-09-06T22:20:26.931Z,24.40
2022-09-06T22:22:56.430Z,24.50
2022-09-06T22:25:26.018Z,24.50
2022-09-06T22:27:55.563Z,24.50
2022-09-06T22:30:25.987Z,24.50
2022-09-06T22:32:57.108Z,24.60
2022-09-06T22:35:26.586Z,24.60
2022-09-06T22:37:56.021Z,24.70
2022-09-06T22:40:25.556Z,24.60
2022-09-06T22:42:55.677Z,24.70
2022-09-06T22:45:25.190Z,24.50
2022-09-06T22:47:56.181Z,24.30
2022-09-06T22:50:25.693Z,24.40
2022-09-06T22:52:55.124Z,24.40
2022-09-06T22:55:24.777Z,24.30
2022-09-06T22:57:54.244Z,24.30
2022-09-06T23:00:23.811Z,24.40
2022-09-06T23:02:53.301Z,24.40
2022-09-06T23:05:25.973Z,24.40
2022-09-06T23:07:58.031Z,24.50
2022-09-06T23:10:27.826Z,24.50
2022-09-06T23:12:57.261Z,24.30
2022-09-06T23:15:27.334Z,24.30
2022-09-06T23:17:56.926Z,24.20
2022-09-06T23:20:27.995Z,24.20
2022-09-06T23:22:57.676Z,24.40
2022-09-06T23:25:27.129Z,24.50
2022-09-06T23:27:58.133Z,24.40
2022-09-06T23:30:27.692Z,24.30
2022-09-06T23:32:57.372Z,24.40
2022-09-06T23:35:28.458Z,24.50
2022-09-06T23:37:58.052Z,24.50
2022-09-06T23:40:27.526Z,24.60
2022-09-06T23:42:57.046Z,24.60
2022-09-06T23:45:26.518Z,24.60
2022-09-06T23:47:56.051Z,24.50
2022-09-06T23:50:27.272Z,24.40
2022-09-06T23:52:56.826Z,24.60
2022-09-06T23:55:26.271Z,24.50
2022-09-06T23:57:55.902Z,24.30
